Aviation Digital Data Service (ADDS)

Output produced by METARs form (0719 UTC 24 March 2019)
found at http://www.aviationweather.gov/metar/data/
 
KADH 240655Z AUTO 19004KT 10SM BKN018 16/15 A2998 RMK AO2
KAXS 240715Z AUTO 11007KT 10SM CLR 12/07 A2994 RMK AO2 T01160066
KAVK 240655Z AUTO 01005KT 3SM BR OVC007 11/11 A2996 RMK AO2
K1F0 240655Z AUTO 18008KT 10SM SCT020 17/13 A2998 RMK AO2
KADM 240715Z AUTO 19006KT 10SM CLR 17/15 A2997 RMK AO2 T01710150
KAQR 240655Z AUTO 00000KT 10SM OVC034 15/13 A3001 RMK AO2
KBVO 240653Z AUTO 00000KT 8SM FEW008 OVC021 11/09 A2999 RMK AO2 SLP151 T01060094
KBVO 240604Z 2406/2506 16003KT P6SM BKN013 
     FM241600 32007KT P6SM BKN025 
     FM241900 33007KT P6SM BKN250 
     FM250000 34004KT P6SM SCT250
       
KBKN 240715Z AUTO 11006KT 1SM BR OVC003 12/12 A2996 RMK AO2
KCQB 240655Z AUTO 12006KT M1/4SM FG OVC001 12/11 A2996 RMK AO2 T01160114
KCHK 240655Z AUTO 16008KT 10SM CLR 16/14 A2992 RMK AO2 T01570144
KGCM 240715Z AUTO 15009KT 10SM 11/10 A3000 RMK AO2 TSNO PWINO
KCSM 240653Z AUTO 15009KT 10SM CLR 11/07 A2993 RMK AO2 SLP126 T01060067
KCSM 240609Z 2406/2506 VRB05KT P6SM SCT250 
     FM241000 35010KT P6SM BKN250
       
KCUH 240655Z AUTO 00000KT 1 1/4SM BR SCT004 09/09 A2996 RMK AO2 T00920092
KDUC 240655Z AUTO 12004KT 1SM BR VV007 14/14 A2997 RMK AO2
KDUA 240655Z AUTO 19011G16KT 10SM CLR 16/12 A3002 RMK AO2
KELK 240655Z AUTO 18004KT 10SM CLR 11/06 A2993 RMK AO2 T01050060
KRQO 240655Z AUTO 17008KT 12/12 A2995 RMK AO2 PWINO T01220119
KWDG 240715Z AUTO 17005KT 1/4SM FG OVC002 12/12 A2993 RMK AO2
KFDR 240653Z AUTO 16006KT 10SM CLR 12/11 A2990 RMK AO2 SLP115 T01220106 $
KGAG 240653Z AUTO 36005KT 10SM CLR 08/04 A2998 RMK AO2 SLP144 T00780039 $
KGMJ 240715Z AUTO 16010KT 10SM CLR 12/10 A3001 RMK AO2 LTG DSNT SE
KGOK 240704Z AUTO 00000KT 3/4SM BR CLR 10/10 A2994 RMK AO2 T01000100 $
KHBR 240653Z AUTO 19004KT 10SM CLR 11/07 A2993 RMK AO2 SLP126 T01060067
K4O4 240655Z AUTO 18008G15KT 10SM OVC032 17/11 A3003 RMK AO2
KLAW 240653Z AUTO 11005KT 6SM BR CLR 13/13 A2994 RMK AO2 SLP132 T01330128
KLAW 240609Z 2406/2506 VRB06KT P6SM SCT090 
     FM241400 36011KT P6SM BKN250
       
KMLC 240653Z AUTO 17005KT 10SM BKN032 BKN043 OVC060 17/12 A3000 RMK AO2 SLP157 T01670117
KMKO 240707Z AUTO 14009KT 10SM -RA SCT038 12/12 A3002 RMK AO2 LTG DSNT SW TSE05 P0000 T01220122
KOUN 240655Z AUTO 17009KT 10SM CLR 16/15 A2994 RMK AO2 T01630145
KOUN 240609Z 2406/2506 17010KT P6SM BKN250 
     TEMPO 2409/2413 5SM BR BKN015 
     FM241500 34010KT P6SM BKN250
       
KRCE 240715Z AUTO 18011KT 10SM CLR 14/14 A2994 RMK AO2
KHSD 240705Z AUTO 18009KT 10SM CLR 15/15 A2994 RMK A01
KPWA 240653Z AUTO 18008KT 10SM CLR 14/13 A2994 RMK AO2 SLP131 T01440133
KOKC 240652Z 18006KT 9SM FEW250 13/13 A2995 RMK AO2 SLP134 T01280128
KOKC 240609Z 2406/2506 17008KT P6SM BKN250 
     TEMPO 2409/2413 5SM BR BKN015 
     FM241400 34010KT P6SM BKN250
       
KOKM 240715Z AUTO 11009KT 100V160 10SM BKN020 OVC026 12/12 A2999 RMK AO2 LTG DSNT SE T01220122
KPVJ 240715Z AUTO 18004KT 10SM BKN016 16/15 A2996 RMK AO2 T01600152
KPNC 240653Z AUTO 14007KT 9SM OVC006 12/09 A2995 RMK AO2 SLP138 T01170094
KPNC 240609Z 2406/2506 14010KT P6SM OVC008 
     TEMPO 2407/2411 5SM BR 
     FM241200 27008KT P6SM BKN008 
     FM241500 33010KT P6SM BKN250
       
KRKR 240715Z AUTO 25003KT 10SM SCT043 SCT049 SCT070 13/13 A3003 RMK AO2 LTG DSNT SE AND S
KOWP 240715Z AUTO 13010KT 10SM SCT012 BKN022 14/12 A2998 RMK AO2 LTG DSNT E T01350120
KSRE 240655Z AUTO 00000KT 10SM OVC018 16/15 A2998 RMK AO2
KSNL 240655Z AUTO 19007KT 10SM SCT021 BKN026 14/13 A2997 RMK AO2 T01420134
KGZL 240715Z AUTO 08006KT 10SM FEW031 BKN039 OVC045 12/11 A3004 RMK AO2 LTG DSNT S AND NW
KSWO 240718Z AUTO 4SM BR FEW003 10/08 A2994 RMK AO2 T01000083
KTQH 240715Z AUTO 12005KT 10SM SCT034 SCT044 10/10 A3003 RMK AO2
KRVS 240653Z AUTO 15006KT 10SM SCT017 BKN022 13/11 A2999 RMK AO2 SLP163 T01280106 TSNO
KRVS 240520Z 2406/2506 16009KT P6SM BKN014 BKN019 BKN024 
     FM241800 32005KT P6SM OVC015 
     FM242100 32007KT P6SM BKN025 
     FM250000 34004KT P6SM SCT250
       
KTUL 240653Z 14009KT 10SM BKN020 13/11 A2998 RMK AO2 SLP151 T01280111
KTUL 240520Z 2406/2506 14010G16KT P6SM FEW025 SCT080 BKN250 
     TEMPO 2406/2408 2SM TSRA BKN030CB 
     FM240800 16005KT P6SM OVC015 
     FM241800 32007KT P6SM OVC015 
     FM242100 32010KT P6SM BKN025 
     FM250000 34006KT P6SM SCT250
       
KOJA 240715Z AUTO 00000KT 10SM CLR 12/11 A2993 RMK AO2
KWWR 240715Z AUTO 00000KT 10SM CLR 05/02 A3001 RMK AO2
KWWR 240609Z 2406/2506 VRB05KT P6SM SCT090 
     FM241000 34009KT P6SM SCT250